Time;durP1;ratioP1;P1;durP2;ratioP2;P2;SDS_P1;SDS_P2;PMS_P1;PMS_P2;Temp;Humidity;BMP_temperature;BMP_pressure;BME280_temperature;BME280_humidity;BME280_pressure;Samples;Min_cycle;Max_cycle;Signal;HPM_P1;HPM_P2
2023/07/26 00:02:33;;;;;;;0.50;0.50;;;20.90;57.00;;;;;;6126699;29;20330;-78
2023/07/26 00:05:35;;;;;;;2.30;0.68;;;20.90;57.10;;;;;;6109712;29;20078;-78
2023/07/26 00:08:35;;;;;;;0.65;0.50;;;20.90;57.20;;;;;;6127188;29;20086;-77
2023/07/26 00:11:36;;;;;;;1.80;0.80;;;20.90;57.30;;;;;;6108874;29;20035;-76
2023/07/26 00:14:37;;;;;;;2.72;0.63;;;20.90;57.30;;;;;;6108872;29;20468;-78
2023/07/26 00:17:38;;;;;;;0.40;0.40;;;20.90;57.30;;;;;;6110376;29;20036;-77
2023/07/26 00:20:39;;;;;;;0.70;0.70;;;21.30;57.50;;;;;;6108700;29;20031;-77
2023/07/26 00:23:39;;;;;;;0.47;0.35;;;20.90;57.30;;;;;;6128010;29;20038;-77
2023/07/26 00:26:40;;;;;;;0.28;0.25;;;20.80;56.90;;;;;;6094648;29;20051;-76
2023/07/26 00:29:41;;;;;;;1.35;0.40;;;20.80;56.70;;;;;;6093193;29;20031;-77
2023/07/26 00:32:42;;;;;;;1.33;0.32;;;20.70;56.20;;;;;;6109993;29;20087;-77
2023/07/26 00:35:43;;;;;;;0.88;0.50;;;20.70;55.70;;;;;;6093779;29;20043;-76
2023/07/26 00:38:44;;;;;;;0.57;0.30;;;20.60;55.30;;;;;;6109854;29;20503;-77
2023/07/26 00:41:45;;;;;;;0.45;0.30;;;20.70;55.20;;;;;;6108999;29;20032;-77
2023/07/26 00:44:46;;;;;;;1.27;0.55;;;20.60;55.30;;;;;;6125348;29;20134;-78
2023/07/26 00:47:48;;;;;;;3.00;0.40;;;20.50;55.40;;;;;;6108922;29;20798;-77
2023/07/26 00:50:49;;;;;;;1.58;0.68;;;20.50;55.40;;;;;;6109829;29;20143;-76
2023/07/26 00:53:50;;;;;;;1.17;0.30;;;20.50;56.00;;;;;;6108428;29;20062;-77
2023/07/26 00:56:52;;;;;;;0.38;0.38;;;20.40;55.60;;;;;;6091298;29;20123;-78
2023/07/26 00:59:53;;;;;;;0.30;0.30;;;20.40;55.70;;;;;;6125974;29;20126;-77
2023/07/26 01:02:54;;;;;;;3.42;0.60;;;20.40;55.70;;;;;;6109131;29;20046;-77
2023/07/26 01:06:19;;;;;;;1.13;0.43;;;20.30;55.60;;;;;;6108333;29;20333;-76
2023/07/26 01:09:39;;;;;;;3.25;0.45;;;20.30;55.90;;;;;;6125821;29;20054;-77
2023/07/26 01:12:52;;;;;;;0.93;0.60;;;20.30;56.70;;;;;;6126132;29;20032;-78
2023/07/26 01:15:54;;;;;;;4.35;0.65;;;20.30;57.30;;;;;;6108043;29;20050;-76
2023/07/26 01:18:55;;;;;;;0.70;0.60;;;20.20;57.50;;;;;;6093182;29;20036;-76
2023/07/26 01:21:56;;;;;;;2.05;0.57;;;20.30;57.80;;;;;;6107933;29;20035;-77
2023/07/26 01:24:57;;;;;;;1.00;0.80;;;20.20;58.10;;;;;;6108701;29;20123;-76
2023/07/26 01:27:59;;;;;;;1.75;0.75;;;20.20;58.30;;;;;;6108488;29;20039;-77
2023/07/26 01:31:03;;;;;;;1.02;0.60;;;20.20;58.50;;;;;;6124721;29;20201;-76
2023/07/26 01:34:08;;;;;;;1.48;0.47;;;20.50;58.80;;;;;;6108442;29;20048;-76
2023/07/26 01:37:09;;;;;;;1.23;0.50;;;20.20;58.80;;;;;;6125411;29;20072;-78
2023/07/26 01:40:11;;;;;;;0.57;0.40;;;20.20;58.90;;;;;;6107408;29;20139;-78
2023/07/26 01:43:12;;;;;;;1.73;0.80;;;20.20;58.90;;;;;;6107869;29;20433;-81
2023/07/26 01:46:13;;;;;;;0.75;0.50;;;20.20;58.80;;;;;;6124545;29;20048;-77
2023/07/26 01:49:16;;;;;;;1.65;0.98;;;20.20;59.00;;;;;;6107999;29;20036;-77
2023/07/26 01:52:17;;;;;;;1.40;0.57;;;20.30;58.90;;;;;;6100445;29;20485;-76
2023/07/26 01:55:18;;;;;;;0.45;0.40;;;20.30;58.90;;;;;;6083770;29;20040;-78
2023/07/26 01:58:19;;;;;;;1.58;0.40;;;20.30;59.00;;;;;;6085060;29;20161;-78
2023/07/26 02:01:20;;;;;;;2.88;0.70;;;20.30;58.90;;;;;;6085159;29;20569;-76
2023/07/26 02:04:21;;;;;;;0.88;0.57;;;20.30;58.80;;;;;;6099721;29;20060;-78
2023/07/26 02:07:22;;;;;;;3.78;0.73;;;20.30;58.80;;;;;;6084617;29;20117;-80
2023/07/26 02:10:23;;;;;;;0.93;0.70;;;20.30;58.80;;;;;;6084339;29;20130;-76
2023/07/26 02:13:24;;;;;;;1.23;0.60;;;20.30;58.70;;;;;;6102313;29;20541;-78
2023/07/26 02:16:24;;;;;;;12.60;1.55;;;20.30;58.80;;;;;;6084182;29;20658;-79
2023/07/26 02:19:25;;;;;;;1.23;0.55;;;20.30;58.90;;;;;;6084114;29;20061;-77
2023/07/26 02:22:26;;;;;;;3.03;0.82;;;20.30;58.90;;;;;;6093626;29;20262;-79
2023/07/26 02:25:28;;;;;;;1.50;0.85;;;20.30;58.90;;;;;;6108163;29;20051;-78
2023/07/26 02:28:32;;;;;;;1.58;1.05;;;20.20;59.00;;;;;;6109117;29;20028;-77
2023/07/26 02:31:33;;;;;;;1.48;0.70;;;20.20;59.10;;;;;;6108434;29;20035;-77
2023/07/26 02:34:35;;;;;;;1.90;0.80;;;20.10;59.20;;;;;;6108094;29;20114;-77
2023/07/26 02:37:38;;;;;;;2.08;0.55;;;20.10;59.40;;;;;;6107864;29;20046;-77
2023/07/26 02:40:38;;;;;;;0.70;0.52;;;20.00;59.40;;;;;;6107405;29;20485;-77
2023/07/26 02:43:39;;;;;;;3.45;0.85;;;20.00;59.50;;;;;;6102312;29;20060;-77
2023/07/26 02:46:40;;;;;;;1.08;0.55;;;20.00;59.50;;;;;;6106379;29;20032;-77
2023/07/26 02:49:41;;;;;;;4.55;0.68;;;20.00;59.60;;;;;;6124972;29;20476;-78
2023/07/26 02:52:42;;;;;;;0.60;0.50;;;20.00;59.60;;;;;;6122349;29;20024;-79
2023/07/26 02:55:42;;;;;;;0.73;0.40;;;19.90;59.60;;;;;;6131254;28;20039;-80
2023/07/26 02:58:43;;;;;;;1.77;1.05;;;19.80;59.80;;;;;;6131615;29;20028;-79
2023/07/26 03:01:44;;;;;;;1.35;0.70;;;20.00;59.90;;;;;;6148927;28;20039;-80
2023/07/26 03:04:45;;;;;;;4.18;0.65;;;19.70;60.30;;;;;;6131449;28;20031;-79
2023/07/26 03:07:46;;;;;;;0.88;0.60;;;19.80;60.10;;;;;;6125683;29;20043;-76
2023/07/26 03:10:50;;;;;;;1.40;0.68;;;19.80;59.80;;;;;;6120442;29;20031;-77
2023/07/26 03:13:50;;;;;;;0.50;0.43;;;19.70;59.60;;;;;;6122303;29;20036;-76
2023/07/26 03:16:51;;;;;;;0.80;0.70;;;19.70;59.60;;;;;;6121452;29;20036;-78
2023/07/26 03:19:52;;;;;;;1.30;0.55;;;19.70;59.70;;;;;;6137659;29;20135;-77
2023/07/26 03:22:53;;;;;;;3.60;0.47;;;19.60;60.00;;;;;;6113419;29;20067;-77
2023/07/26 03:25:55;;;;;;;1.90;0.77;;;19.60;60.10;;;;;;6096592;29;20035;-76
2023/07/26 03:28:55;;;;;;;2.25;0.50;;;19.50;60.20;;;;;;6111193;29;20058;-76
2023/07/26 03:31:56;;;;;;;0.82;0.60;;;19.40;60.40;;;;;;6096692;29;20043;-77
2023/07/26 03:34:57;;;;;;;1.83;0.80;;;19.30;60.70;;;;;;6111424;29;20114;-76
2023/07/26 03:37:58;;;;;;;1.10;0.70;;;19.30;60.90;;;;;;6110902;29;20034;-76
2023/07/26 03:40:59;;;;;;;2.03;0.80;;;19.20;61.00;;;;;;6111514;29;20062;-78
2023/07/26 03:44:01;;;;;;;1.05;0.60;;;19.20;61.10;;;;;;6111333;29;20031;-76
2023/07/26 03:47:02;;;;;;;1.10;0.57;;;19.10;61.20;;;;;;6110071;29;20067;-76
2023/07/26 03:50:06;;;;;;;1.52;0.88;;;19.10;61.20;;;;;;6125790;29;20031;-77
2023/07/26 03:53:06;;;;;;;1.65;0.82;;;19.00;60.90;;;;;;6110804;29;20040;-78
2023/07/26 03:56:07;;;;;;;2.95;0.70;;;19.00;60.80;;;;;;6110596;29;20028;-77
2023/07/26 03:59:08;;;;;;;0.75;0.68;;;19.00;60.80;;;;;;6109957;29;20035;-77
2023/07/26 04:02:09;;;;;;;0.70;0.70;;;19.00;60.80;;;;;;6111251;29;20051;-77
2023/07/26 04:05:09;;;;;;;1.10;0.98;;;19.00;60.60;;;;;;6110468;29;20162;-78
2023/07/26 04:08:10;;;;;;;1.15;0.52;;;19.00;60.40;;;;;;6109714;29;20126;-77
2023/07/26 04:11:11;;;;;;;0.70;0.60;;;19.00;60.20;;;;;;6109909;29;20119;-77
2023/07/26 04:14:12;;;;;;;1.77;0.65;;;19.00;60.20;;;;;;6109317;29;20036;-77
2023/07/26 04:17:13;;;;;;;6.13;0.88;;;19.00;60.30;;;;;;6124780;29;20036;-76
2023/07/26 04:20:14;;;;;;;0.60;0.60;;;19.00;59.90;;;;;;6124887;29;20144;-78
2023/07/26 04:23:15;;;;;;;1.25;0.88;;;18.90;60.50;;;;;;6124128;29;20126;-77
2023/07/26 04:26:16;;;;;;;2.20;0.90;;;18.80;60.40;;;;;;6127649;29;20511;-78
2023/07/26 04:29:16;;;;;;;2.63;0.88;;;19.00;60.60;;;;;;6094599;29;20089;-77
2023/07/26 04:32:17;;;;;;;0.73;0.60;;;19.00;60.60;;;;;;6109185;29;20142;-78
2023/07/26 04:35:18;;;;;;;2.03;0.73;;;19.00;60.60;;;;;;6128989;29;20036;-77
2023/07/26 04:38:19;;;;;;;1.17;0.73;;;19.00;60.50;;;;;;6110326;29;20039;-77
2023/07/26 04:41:20;;;;;;;1.13;0.70;;;19.00;60.50;;;;;;6108827;29;20042;-78
2023/07/26 04:44:21;;;;;;;2.22;0.65;;;18.90;60.30;;;;;;6108944;29;20036;-76
2023/07/26 04:47:22;;;;;;;2.45;0.75;;;18.90;60.20;;;;;;6106318;29;20110;-78
2023/07/26 04:50:23;;;;;;;0.85;0.70;;;18.90;60.10;;;;;;6126638;29;20031;-77
2023/07/26 04:53:24;;;;;;;1.20;0.95;;;18.90;60.00;;;;;;6096699;29;20047;-81
2023/07/26 04:56:26;;;;;;;0.60;0.60;;;18.90;60.00;;;;;;6103202;29;20058;-78
2023/07/26 04:59:27;;;;;;;1.20;0.70;;;18.90;60.10;;;;;;6086639;29;20043;-78
2023/07/26 05:02:28;;;;;;;1.65;1.02;;;19.00;60.00;;;;;;6086475;29;20024;-78
2023/07/26 05:05:28;;;;;;;0.98;0.70;;;19.00;60.00;;;;;;6105213;29;20032;-80
2023/07/26 05:08:29;;;;;;;15.30;0.80;;;19.10;59.90;;;;;;6100547;29;20039;-77
2023/07/26 05:11:30;;;;;;;4.95;0.50;;;19.10;59.70;;;;;;6087386;29;20036;-78
2023/07/26 05:14:31;;;;;;;0.90;0.70;;;19.20;59.60;;;;;;6087213;29;20044;-78
2023/07/26 05:17:32;;;;;;;0.90;0.73;;;19.30;59.50;;;;;;6086589;29;20047;-77
2023/07/26 05:20:32;;;;;;;0.75;0.75;;;19.30;59.40;;;;;;6084561;29;20032;-77
2023/07/26 05:23:33;;;;;;;1.27;0.80;;;19.40;59.30;;;;;;6120915;29;20074;-78
2023/07/26 05:26:34;;;;;;;1.48;0.88;;;19.40;59.20;;;;;;6126754;29;20063;-78
2023/07/26 05:29:35;;;;;;;6.90;0.93;;;19.50;59.10;;;;;;6094580;29;20063;-77
2023/07/26 05:32:36;;;;;;;0.73;0.63;;;19.60;58.90;;;;;;6124820;29;20043;-76
2023/07/26 05:35:38;;;;;;;0.80;0.52;;;19.60;58.80;;;;;;6108590;29;20081;-77
2023/07/26 05:38:39;;;;;;;2.17;0.68;;;19.70;58.70;;;;;;6093127;29;20055;-76
2023/07/26 05:41:40;;;;;;;1.17;0.82;;;19.70;58.70;;;;;;6108979;29;20545;-76
2023/07/26 05:44:41;;;;;;;1.85;0.90;;;19.70;58.70;;;;;;6107561;29;20449;-77
2023/07/26 05:47:43;;;;;;;1.10;0.80;;;19.80;58.70;;;;;;6124689;29;20050;-77
2023/07/26 05:50:47;;;;;;;1.95;0.70;;;19.80;58.60;;;;;;6108779;29;20039;-76
2023/07/26 05:53:49;;;;;;;0.88;0.60;;;19.80;58.60;;;;;;6126045;29;20055;-79
2023/07/26 05:56:50;;;;;;;0.60;0.60;;;19.80;58.50;;;;;;6126285;29;20035;-78
2023/07/26 05:59:51;;;;;;;1.45;1.10;;;19.80;58.50;;;;;;6108612;29;20066;-78
2023/07/26 06:02:52;;;;;;;2.35;0.57;;;19.80;58.50;;;;;;6109466;29;20445;-78
2023/07/26 06:05:52;;;;;;;1.33;0.80;;;19.90;58.40;;;;;;6109349;29;20151;-77
2023/07/26 06:08:53;;;;;;;1.48;0.82;;;19.90;58.30;;;;;;6107527;29;20054;-77
2023/07/26 06:11:54;;;;;;;2.30;0.88;;;20.00;58.20;;;;;;6124661;29;20024;-76
2023/07/26 06:14:55;;;;;;;2.53;0.85;;;20.10;58.20;;;;;;6108382;29;20353;-78
2023/07/26 06:17:56;;;;;;;1.80;0.90;;;20.20;58.10;;;;;;6092557;29;20123;-77
2023/07/26 06:20:57;;;;;;;4.22;0.82;;;20.20;58.00;;;;;;6107980;29;20051;-77
2023/07/26 06:23:57;;;;;;;4.25;0.77;;;20.20;57.80;;;;;;6108323;29;20032;-77
2023/07/26 06:26:58;;;;;;;1.35;0.70;;;20.30;57.80;;;;;;6107369;29;20543;-77
2023/07/26 06:29:59;;;;;;;1.70;1.10;;;20.30;57.90;;;;;;6124521;29;20039;-77
2023/07/26 06:33:00;;;;;;;2.63;1.15;;;20.40;57.80;;;;;;6107210;29;20040;-79
2023/07/26 06:36:01;;;;;;;3.20;0.82;;;20.40;57.70;;;;;;6107029;29;20063;-78
2023/07/26 06:39:02;;;;;;;0.98;0.90;;;20.40;57.50;;;;;;6106438;29;20123;-77
2023/07/26 06:42:03;;;;;;;1.80;0.70;;;20.50;57.50;;;;;;6107643;29;20191;-76
2023/07/26 06:45:04;;;;;;;1.58;1.00;;;20.60;57.40;;;;;;6113093;29;20641;-77
2023/07/26 06:48:05;;;;;;;1.35;0.90;;;20.60;57.20;;;;;;6127030;29;20115;-78
2023/07/26 06:51:06;;;;;;;2.88;1.02;;;20.60;57.40;;;;;;6129317;29;20046;-77
2023/07/26 06:54:07;;;;;;;1.15;0.88;;;20.70;57.10;;;;;;6112349;29;20099;-77
2023/07/26 06:57:09;;;;;;;1.15;0.80;;;20.80;56.80;;;;;;6130645;29;20027;-77
2023/07/26 07:00:12;;;;;;;3.03;1.05;;;20.90;56.60;;;;;;6130971;29;20027;-78
2023/07/26 07:03:13;;;;;;;1.58;0.98;;;21.00;56.20;;;;;;6112817;29;20042;-79
2023/07/26 07:06:17;;;;;;;1.02;0.90;;;21.20;55.50;;;;;;6111974;29;20032;-77
2023/07/26 07:09:18;;;;;;;3.90;0.77;;;21.30;55.00;;;;;;6096154;29;20036;-78
2023/07/26 07:12:18;;;;;;;5.43;1.20;;;21.40;54.20;;;;;;6112702;29;20059;-78
2023/07/26 07:15:19;;;;;;;2.88;1.08;;;21.50;53.70;;;;;;6113881;29;20032;-79
2023/07/26 07:18:20;;;;;;;1.98;0.85;;;21.60;53.60;;;;;;6129307;29;20035;-77
2023/07/26 07:21:21;;;;;;;4.57;0.80;;;21.70;53.60;;;;;;6095508;29;20115;-76
2023/07/26 07:24:21;;;;;;;2.42;0.77;;;21.80;53.40;;;;;;6129116;29;20023;-78
2023/07/26 07:27:23;;;;;;;1.05;0.75;;;21.90;52.10;;;;;;6127689;29;20696;-78
2023/07/26 07:30:24;;;;;;;0.93;0.55;;;21.90;51.20;;;;;;6128872;29;20035;-79
2023/07/26 07:33:24;;;;;;;2.72;1.00;;;22.00;51.20;;;;;;6126784;29;20047;-78
2023/07/26 07:36:25;;;;;;;2.53;1.00;;;22.00;51.10;;;;;;6125715;29;20123;-78
2023/07/26 07:39:26;;;;;;;1.98;0.93;;;22.20;51.00;;;;;;6109963;29;20043;-77
2023/07/26 07:42:27;;;;;;;1.52;1.00;;;22.20;50.60;;;;;;6094486;29;20032;-77
2023/07/26 07:45:28;;;;;;;6.97;1.10;;;22.40;50.40;;;;;;6101820;29;20104;-75
2023/07/26 07:48:30;;;;;;;1.00;0.70;;;22.50;50.60;;;;;;6102797;29;20079;-76
2023/07/26 07:51:31;;;;;;;2.65;1.05;;;22.60;50.80;;;;;;6104754;29;20125;-77
2023/07/26 07:54:32;;;;;;;2.25;1.05;;;22.70;50.80;;;;;;6092529;29;20044;-76
2023/07/26 07:57:33;;;;;;;2.15;0.95;;;22.80;50.60;;;;;;6124537;29;20452;-78
2023/07/26 08:00:34;;;;;;;2.42;0.93;;;22.90;50.50;;;;;;6108875;29;20066;-78
2023/07/26 08:03:35;;;;;;;2.08;0.95;;;23.10;50.40;;;;;;6126951;29;20058;-77
2023/07/26 08:06:36;;;;;;;2.63;0.95;;;23.10;50.10;;;;;;6126021;29;20035;-77
2023/07/26 08:09:36;;;;;;;7.47;1.23;;;23.10;49.70;;;;;;6093181;29;20044;-76
2023/07/26 08:12:37;;;;;;;2.65;1.00;;;23.10;49.20;;;;;;6109198;29;20055;-78
2023/07/26 08:15:38;;;;;;;1.38;0.82;;;23.10;48.80;;;;;;6125810;29;20147;-77
2023/07/26 08:18:39;;;;;;;2.33;0.80;;;23.20;48.40;;;;;;6108607;29;20031;-77
2023/07/26 08:21:40;;;;;;;1.60;1.08;;;23.30;48.10;;;;;;6092739;29;20138;-76
2023/07/26 08:24:41;;;;;;;2.58;1.27;;;23.40;47.50;;;;;;6126142;29;20107;-78
2023/07/26 08:27:42;;;;;;;1.95;0.93;;;23.50;47.50;;;;;;6110120;29;20441;-77
2023/07/26 08:30:43;;;;;;;3.00;1.17;;;23.60;47.80;;;;;;6109027;29;20114;-77
2023/07/26 08:33:44;;;;;;;1.45;0.88;;;23.60;47.10;;;;;;6109144;29;20099;-78
2023/07/26 08:36:45;;;;;;;0.75;0.75;;;23.70;47.20;;;;;;6092508;29;20054;-79
2023/07/26 08:39:46;;;;;;;4.47;1.30;;;23.80;47.10;;;;;;6126742;29;20452;-77
2023/07/26 08:42:47;;;;;;;0.70;0.68;;;23.80;47.00;;;;;;6107847;29;20062;-78
2023/07/26 08:45:50;;;;;;;2.03;1.05;;;24.00;46.90;;;;;;6124498;29;20031;-77
2023/07/26 08:48:51;;;;;;;1.50;1.08;;;24.10;46.60;;;;;;6110270;29;20460;-77
2023/07/26 08:51:53;;;;;;;1.42;1.10;;;24.20;46.30;;;;;;6127417;29;20047;-79
2023/07/26 08:54:54;;;;;;;4.28;1.20;;;24.30;46.00;;;;;;6109562;29;20429;-78
2023/07/26 08:57:56;;;;;;;1.50;1.20;;;24.50;46.00;;;;;;6112663;29;20465;-80
2023/07/26 09:00:58;;;;;;;1.65;0.90;;;24.40;45.80;;;;;;6119713;29;20122;-78
2023/07/26 09:03:59;;;;;;;1.92;0.80;;;24.40;45.80;;;;;;6121543;29;20027;-79
2023/07/26 09:07:05;;;;;;;1.88;0.80;;;24.30;45.40;;;;;;6130531;29;20031;-78
2023/07/26 09:10:06;;;;;;;2.17;1.10;;;24.30;45.30;;;;;;6111375;29;20123;-78
2023/07/26 09:13:12;;;;;;;3.75;0.98;;;24.30;45.30;;;;;;6129110;29;20043;-77
2023/07/26 09:16:13;;;;;;;1.77;0.95;;;24.40;45.30;;;;;;6110683;29;20063;-78
2023/07/26 09:19:14;;;;;;;1.80;1.17;;;24.50;45.10;;;;;;6110477;29;20031;-78
2023/07/26 09:22:14;;;;;;;1.05;0.80;;;24.50;45.00;;;;;;6127537;29;20462;-76
2023/07/26 09:25:34;;;;;;;6.25;0.82;;;24.60;45.10;;;;;;6109945;29;20524;-79
2023/07/26 09:28:50;;;;;;;1.70;0.90;;;24.70;44.60;;;;;;6109730;29;20035;-77
2023/07/26 09:31:51;;;;;;;2.15;1.10;;;24.70;44.10;;;;;;6126869;29;20109;-78
2023/07/26 09:34:52;;;;;;;3.15;1.00;;;24.70;44.30;;;;;;6093784;29;20047;-77
2023/07/26 09:37:53;;;;;;;2.13;1.10;;;24.70;44.00;;;;;;6127636;29;20034;-78
2023/07/26 09:40:54;;;;;;;1.10;0.90;;;24.60;43.70;;;;;;6109822;29;20035;-78
2023/07/26 09:43:59;;;;;;;6.13;1.52;;;24.60;43.70;;;;;;6106833;29;20399;-76
2023/07/26 09:47:00;;;;;;;0.80;0.70;;;24.70;43.70;;;;;;6109045;29;20047;-78
2023/07/26 09:50:01;;;;;;;1.60;0.80;;;24.80;43.40;;;;;;6108279;29;20102;-76
2023/07/26 09:53:04;;;;;;;1.00;0.90;;;24.90;42.90;;;;;;6106864;29;20039;-79
2023/07/26 09:56:11;;;;;;;1.38;0.80;;;24.90;42.60;;;;;;6106685;29;20380;-78
2023/07/26 09:59:13;;;;;;;2.85;0.90;;;25.00;42.20;;;;;;6127165;29;20039;-77
2023/07/26 10:02:14;;;;;;;1.77;1.15;;;25.10;42.20;;;;;;6126011;29;20362;-79
2023/07/26 10:05:17;;;;;;;1.27;0.88;;;25.30;41.60;;;;;;6108499;29;20043;-78
2023/07/26 10:08:19;;;;;;;3.88;0.90;;;25.40;41.20;;;;;;6108305;29;20027;-77
2023/07/26 10:11:22;;;;;;;2.30;0.90;;;25.50;41.00;;;;;;6110130;29;20055;-79
2023/07/26 10:14:24;;;;;;;1.17;0.85;;;25.50;40.70;;;;;;6126582;29;20128;-78
2023/07/26 10:17:26;;;;;;;4.20;1.20;;;25.50;40.60;;;;;;6124705;29;20046;-77
2023/07/26 10:20:27;;;;;;;1.45;0.98;;;25.50;40.60;;;;;;6128415;29;20210;-78
2023/07/26 10:23:30;;;;;;;4.07;1.10;;;25.60;40.40;;;;;;6130200;29;20020;-78
2023/07/26 10:26:33;;;;;;;2.20;0.90;;;25.60;40.20;;;;;;6128182;29;20046;-79
2023/07/26 10:29:35;;;;;;;1.77;0.85;;;25.70;40.00;;;;;;6130231;29;20055;-77
2023/07/26 10:32:44;;;;;;;3.60;1.15;;;25.70;39.80;;;;;;6129549;29;20031;-75
2023/07/26 10:35:46;;;;;;;3.30;0.90;;;25.70;39.90;;;;;;6130209;29;20039;-78
2023/07/26 10:38:48;;;;;;;2.00;1.55;;;25.80;39.80;;;;;;6132030;29;20035;-78
2023/07/26 10:41:52;;;;;;;1.35;0.98;;;25.90;40.30;;;;;;6127746;29;20067;-78
2023/07/26 10:45:04;;;;;;;3.88;1.00;;;26.00;39.20;;;;;;6111739;29;20031;-79
2023/07/26 10:48:26;;;;;;;2.42;0.88;;;26.10;38.90;;;;;;6129569;29;20027;-76
2023/07/26 10:51:33;;;;;;;1.75;1.10;;;26.10;38.80;;;;;;6128261;29;20040;-77
2023/07/26 10:54:48;;;;;;;2.30;1.00;;;26.20;39.50;;;;;;6128744;29;20130;-78
2023/07/26 10:57:49;;;;;;;3.78;1.10;;;26.20;38.80;;;;;;6144901;28;20515;-79
2023/07/26 11:00:50;;;;;;;1.98;1.30;;;26.30;38.60;;;;;;6128635;29;20044;-77
2023/07/26 11:03:56;;;;;;;2.58;1.02;;;26.30;38.50;;;;;;6130162;29;20031;-78
2023/07/26 11:07:04;;;;;;;5.45;1.10;;;26.30;38.30;;;;;;6112986;29;20074;-76
2023/07/26 11:10:23;;;;;;;2.67;1.05;;;26.30;38.10;;;;;;6088619;29;20130;-77
2023/07/26 11:13:28;;;;;;;;;;;26.30;38.00;;;;;;6089472;29;20458;-77
2023/07/26 11:16:32;;;;;;;1.40;1.05;;;26.40;37.90;;;;;;6088472;29;19919;-77
2023/07/26 11:19:49;;;;;;;2.05;0.90;;;26.50;37.60;;;;;;6087347;29;20077;-77
2023/07/26 11:22:51;;;;;;;2.67;0.88;;;27.10;37.20;;;;;;6100368;29;20504;-76
2023/07/26 11:25:58;;;;;;;5.60;0.77;;;27.70;36.00;;;;;;6128124;29;20119;-77
2023/07/26 11:28:59;;;;;;;0.77;0.75;;;28.20;35.20;;;;;;6128548;29;20078;-76
2023/07/26 11:32:00;;;;;;;2.85;0.88;;;28.40;34.70;;;;;;6109683;29;20116;-79
2023/07/26 11:35:00;;;;;;;3.40;1.20;;;28.90;34.20;;;;;;6126951;29;20147;-77
2023/07/26 11:38:01;;;;;;;2.45;1.33;;;29.50;33.40;;;;;;6110575;29;20051;-75
2023/07/26 11:41:03;;;;;;;3.88;1.23;;;29.80;32.60;;;;;;6127389;29;20042;-78
2023/07/26 11:44:04;;;;;;;1.83;0.95;;;29.60;32.40;;;;;;6110051;29;20710;-76
2023/07/26 11:47:05;;;;;;;0.95;0.80;;;29.70;32.60;;;;;;6125776;29;20035;-76
2023/07/26 11:50:06;;;;;;;3.10;1.10;;;30.00;32.00;;;;;;6110087;29;20515;-76
2023/07/26 11:53:09;;;;;;;0.80;0.80;;;30.50;31.30;;;;;;6109923;29;20040;-76
2023/07/26 11:56:11;;;;;;;1.40;0.88;;;30.80;30.40;;;;;;6127078;29;20067;-78
2023/07/26 11:59:13;;;;;;;1.08;0.80;;;30.70;30.20;;;;;;6109753;29;20082;-78
2023/07/26 12:02:14;;;;;;;1.20;1.10;;;30.30;30.50;;;;;;6094276;29;20028;-78
2023/07/26 12:05:25;;;;;;;3.20;0.80;;;29.90;31.10;;;;;;6127695;29;20373;-77
2023/07/26 12:08:29;;;;;;;2.28;1.20;;;29.70;32.10;;;;;;6109643;29;20370;-75
2023/07/26 12:11:30;;;;;;;2.58;0.82;;;29.50;31.80;;;;;;6127291;29;20123;-75
2023/07/26 12:14:33;;;;;;;2.53;0.80;;;29.30;32.20;;;;;;6129405;29;20087;-76
2023/07/26 12:17:34;;;;;;;1.20;0.80;;;29.10;32.40;;;;;;6110852;29;20055;-77
2023/07/26 12:20:35;;;;;;;1.17;0.90;;;29.00;32.40;;;;;;6128690;29;20112;-75
2023/07/26 12:23:54;;;;;;;1.67;0.93;;;29.40;31.60;;;;;;6102111;29;20044;-78
2023/07/26 12:26:59;;;;;;;2.50;0.75;;;30.30;30.60;;;;;;6089435;29;20108;-76
2023/07/26 12:30:01;;;;;;;2.65;1.08;;;30.90;29.60;;;;;;6094192;29;20068;-77
2023/07/26 12:33:13;;;;;;;1.40;0.80;;;31.10;29.50;;;;;;6104391;29;20030;-80
2023/07/26 12:36:17;;;;;;;2.78;0.90;;;31.00;29.30;;;;;;6071209;29;20702;-78
2023/07/26 12:39:20;;;;;;;0.80;0.77;;;30.80;29.30;;;;;;6103663;29;20051;-78
2023/07/26 12:42:21;;;;;;;1.10;0.93;;;30.40;29.20;;;;;;6088155;29;20028;-76
2023/07/26 12:45:22;;;;;;;1.20;0.73;;;29.80;29.20;;;;;;6103094;29;20337;-77
2023/07/26 12:48:24;;;;;;;2.35;0.98;;;29.40;29.60;;;;;;6104423;29;20032;-78
2023/07/26 12:51:27;;;;;;;0.63;0.63;;;29.20;30.00;;;;;;6087182;29;20119;-76
2023/07/26 12:54:28;;;;;;;0.88;0.60;;;29.50;29.90;;;;;;6094898;29;20038;-79
2023/07/26 12:57:28;;;;;;;0.63;0.63;;;29.90;29.50;;;;;;6125976;29;20440;-79
2023/07/26 13:00:30;;;;;;;4.80;0.80;;;30.80;28.60;;;;;;6110773;29;20118;-77
2023/07/26 13:03:31;;;;;;;0.88;0.88;;;31.20;28.00;;;;;;6128128;29;20028;-80
2023/07/26 13:06:32;;;;;;;9.15;0.80;;;31.50;27.50;;;;;;6110777;29;20047;-76
2023/07/26 13:09:32;;;;;;;2.97;0.98;;;32.20;26.90;;;;;;6128409;29;20024;-77
2023/07/26 13:12:33;;;;;;;1.65;0.95;;;33.00;26.00;;;;;;6112153;29;20054;-76
2023/07/26 13:15:34;;;;;;;1.50;0.82;;;33.10;25.90;;;;;;6108684;29;20535;-78
2023/07/26 13:18:35;;;;;;;1.38;0.80;;;33.50;25.30;;;;;;6109968;29;20035;-80
2023/07/26 13:21:36;;;;;;;1.45;0.75;;;33.30;25.30;;;;;;6111271;29;20043;-79
2023/07/26 13:24:37;;;;;;;1.38;0.93;;;32.60;25.50;;;;;;6128079;29;20107;-78
2023/07/26 13:27:39;;;;;;;1.58;0.90;;;31.90;26.00;;;;;;6092330;29;20146;-78
2023/07/26 13:30:40;;;;;;;1.63;0.77;;;31.30;26.30;;;;;;6092068;29;20039;-76
2023/07/26 13:33:41;;;;;;;0.52;0.52;;;30.90;26.50;;;;;;6126404;29;20043;-78
2023/07/26 13:36:42;;;;;;;0.95;0.70;;;30.50;26.90;;;;;;6093470;29;20428;-77
2023/07/26 13:39:43;;;;;;;0.70;0.70;;;30.30;27.30;;;;;;6109007;29;20135;-76
2023/07/26 13:42:44;;;;;;;1.77;0.70;;;31.30;26.50;;;;;;6113475;29;20126;-75
2023/07/26 13:45:45;;;;;;;1.25;0.73;;;32.20;25.50;;;;;;6125502;29;20084;-76
2023/07/26 13:48:45;;;;;;;1.10;0.65;;;33.10;25.00;;;;;;6126076;29;20158;-79
2023/07/26 13:51:46;;;;;;;0.82;0.65;;;34.90;23.70;;;;;;6122684;29;20063;-76
2023/07/26 13:54:47;;;;;;;0.93;0.70;;;36.20;22.40;;;;;;6108228;29;20126;-79
2023/07/26 13:57:48;;;;;;;4.10;0.70;;;36.20;22.00;;;;;;6123722;29;20146;-76
2023/07/26 14:00:49;;;;;;;0.70;0.70;;;36.30;21.90;;;;;;6125424;29;20040;-77
2023/07/26 14:03:50;;;;;;;3.90;0.90;;;36.00;22.10;;;;;;6108656;29;20039;-75
2023/07/26 14:06:51;;;;;;;2.00;0.68;;;35.90;21.50;;;;;;6105486;29;20106;-77
2023/07/26 14:09:51;;;;;;;0.60;0.57;;;35.70;21.60;;;;;;6109538;29;20186;-78
2023/07/26 14:12:54;;;;;;;7.03;0.77;;;36.30;21.30;;;;;;6108927;29;20051;-81
2023/07/26 14:15:55;;;;;;;0.85;0.65;;;36.70;20.90;;;;;;6109473;29;20043;-77
2023/07/26 14:18:56;;;;;;;1.92;0.75;;;37.20;20.30;;;;;;6109506;29;20043;-77
2023/07/26 14:21:56;;;;;;;1.50;0.70;;;38.30;20.00;;;;;;6125747;29;20035;-78
2023/07/26 14:24:57;;;;;;;1.38;0.57;;;39.30;19.00;;;;;;6107460;29;20201;-76
2023/07/26 14:27:58;;;;;;;0.70;0.70;;;39.70;18.60;;;;;;6107989;29;20035;-76
2023/07/26 14:30:59;;;;;;;0.98;0.55;;;39.00;18.70;;;;;;6124597;29;20394;-76
2023/07/26 14:33:59;;;;;;;2.28;0.82;;;38.10;18.70;;;;;;6107123;29;20393;-78
2023/07/26 14:37:00;;;;;;;1.08;0.90;;;37.20;19.70;;;;;;6107846;29;20036;-79
2023/07/26 14:40:01;;;;;;;1.65;0.80;;;37.40;19.40;;;;;;6107906;29;20142;-78
2023/07/26 14:43:02;;;;;;;0.88;0.50;;;38.10;18.80;;;;;;6125493;29;20036;-77
2023/07/26 14:46:03;;;;;;;4.75;0.82;;;38.80;18.40;;;;;;6089915;29;20436;-78
2023/07/26 14:49:04;;;;;;;1.08;0.70;;;39.30;18.10;;;;;;6091376;29;20027;-77
2023/07/26 14:52:05;;;;;;;2.58;0.70;;;39.70;17.60;;;;;;6107213;29;20643;-75
2023/07/26 14:55:06;;;;;;;0.60;0.60;;;39.90;17.40;;;;;;6108238;29;20036;-77
2023/07/26 14:58:08;;;;;;;0.70;0.55;;;39.60;17.50;;;;;;6106499;29;20040;-79
2023/07/26 15:01:09;;;;;;;1.20;0.60;;;38.90;17.80;;;;;;6125487;29;20130;-78
2023/07/26 15:04:10;;;;;;;1.85;0.80;;;38.30;17.90;;;;;;6126038;29;20469;-76
2023/07/26 15:07:12;;;;;;;1.27;0.88;;;37.30;18.70;;;;;;6128269;29;20405;-77
2023/07/26 15:10:13;;;;;;;1.08;0.70;;;36.20;19.50;;;;;;6112664;29;20043;-78
2023/07/26 15:13:14;;;;;;;1.10;0.70;;;35.10;20.10;;;;;;6090930;29;20042;-79
2023/07/26 15:16:14;;;;;;;2.33;0.95;;;34.00;20.80;;;;;;6088400;29;20141;-78
2023/07/26 15:19:15;;;;;;;1.98;0.52;;;33.10;21.60;;;;;;6089075;29;20117;-78
2023/07/26 15:22:17;;;;;;;0.80;0.60;;;32.40;22.10;;;;;;6114263;29;20019;-79
2023/07/26 15:25:21;;;;;;;0.70;0.63;;;31.80;22.80;;;;;;6112249;29;20031;-79
2023/07/26 15:28:22;;;;;;;0.98;0.70;;;31.40;23.30;;;;;;6095967;29;20138;-77
2023/07/26 15:31:23;;;;;;;1.85;1.00;;;32.10;22.70;;;;;;6110205;29;20110;-76
2023/07/26 15:34:24;;;;;;;2.67;0.85;;;32.90;22.20;;;;;;6110814;29;20031;-76
2023/07/26 15:37:25;;;;;;;4.38;0.70;;;33.50;21.80;;;;;;6128821;29;20039;-77
2023/07/26 15:40:26;;;;;;;2.58;0.70;;;33.80;21.20;;;;;;6111375;29;20038;-76
2023/07/26 15:43:27;;;;;;;3.53;0.80;;;34.10;20.90;;;;;;6109025;29;20122;-75
2023/07/26 15:46:27;;;;;;;1.33;0.90;;;34.40;20.80;;;;;;6126778;29;20448;-75
2023/07/26 15:49:28;;;;;;;1.27;0.80;;;35.10;20.50;;;;;;6095473;29;20137;-75